Airfield :
LOGIN :

Register | Disclaimer

   EN    FR    IT 

 










Legend :    VFR   Marginal VFR   IFR   Intensive IFR   Very Intensive IFR
Visi :
Ceiling :
>= 8 km
>= 3000ft
5 to 8 km
1000 to 3000 ft
1500m to 5 km
500 to 1000 ft
800 to 1500m
200 to 500 ft
< 800m
< 200 ft
Symbols :   Thunderstorms  Fog  Heavy snow  Heavy precipitations  Wind > 20 kt
SIGMETs :     Misc.  Thunderstorms  Icing  Turbulence  Mountain Waves  Volcanic Ashes







- Airport Elevation : 220 ft
- IATA code : CWL
- Download approach charts


EGFF - Cardiff Rhoose

CURRENT METAR :
  • 162320Z AUTO 29006KT 9999 FEW023 14/12 Q1016

EXPIRED METARs :
  • 162250Z AUTO 30006KT 9999 NCD 14/12 Q1016
  • 162220Z AUTO 29007KT 9999 NCD 15/12 Q1016
  • 162150Z AUTO 29009KT 9999 FEW042 15/12 Q1015
  • 162120Z AUTO 29009KT 9999 SCT041/// 15/12 Q1015
  • 162050Z AUTO 29009KT 9999 NCD 16/12 Q1015

TAF TAF EGFF
Valid from the 17 at 00:00 until the 18 at 00:00 UTC


162254Z 1700/1724 28009KT 9999 SCT045
PROB30 1700/1707 8000
PROB30
TEMPO 1712/1720 8000 -SHRA
ATIS : +44 1446 729 319
No reported NOTAMs for that airfield.
1 SIGMET reported for the London FIR (EGTT) :
 
Embedded thunderstorms
EGTT SIGMET 07 VALID 162300/170200 EGRR
EGTT LONDON FIR EMBD TS FCST WI N5500 W00038 - N5413 E00006 - N5348 E00017 - N5351 W00022 - N5500 W00210 - N5500 W00038 TOP FL300 MOV NE 10KT NC=



MET'MAP, your aeronautical weather chart ! - Copyright ORBIFLY December 2007 - Disclaimer

ORBIFLY MET'MAP TEAM :

Programming & Development : Alexandra Zaïnal
Concept & Development : Baudouin d'Aumeries
Co-Development & Prog : Marc-Olivier Méhu
Technical & hardware support : Manuel Goepfert

Contact : metmap@orbifly.com




SOURCES & CREDITS :

   NOAA